createdAt,value
2018-10-11T00:01:48.999Z,37.63
2018-10-11T00:04:18.197Z,40.07
2018-10-11T00:06:47.229Z,34.70
2018-10-11T00:09:16.327Z,38.37
2018-10-11T00:11:45.440Z,34.87
2018-10-11T00:14:14.375Z,34.00
2018-10-11T00:16:43.522Z,30.50
2018-10-11T00:19:12.589Z,36.30
2018-10-11T00:21:41.664Z,37.37
2018-10-11T00:24:10.773Z,35.83
2018-10-11T00:26:40.164Z,35.57
2018-10-11T00:29:09.195Z,34.53
2018-10-11T00:31:38.443Z,37.40
2018-10-11T00:34:07.605Z,34.93
2018-10-11T00:36:36.793Z,36.33
2018-10-11T00:39:06.566Z,35.27
2018-10-11T00:41:35.966Z,32.47
2018-10-11T00:44:05.156Z,35.37
2018-10-11T00:46:34.241Z,36.77
2018-10-11T00:49:03.586Z,32.50
2018-10-11T00:51:32.653Z,30.17
2018-10-11T00:54:01.647Z,37.43
2018-10-11T00:56:30.744Z,34.57
2018-10-11T00:58:59.691Z,32.67
2018-10-11T01:01:28.804Z,34.83
2018-10-11T01:03:58.016Z,28.50
2018-10-11T01:06:27.040Z,29.87
2018-10-11T01:08:55.989Z,28.90
2018-10-11T01:11:25.487Z,28.57
2018-10-11T01:13:54.466Z,28.77
2018-10-11T01:16:24.174Z,27.73
2018-10-11T01:18:53.424Z,30.00
2018-10-11T01:21:22.315Z,32.37
2018-10-11T01:23:51.362Z,27.70
2018-10-11T01:26:20.692Z,25.50
2018-10-11T01:28:49.650Z,29.73
2018-10-11T01:31:21.520Z,30.90
2018-10-11T01:33:50.590Z,25.97
2018-10-11T01:36:19.908Z,30.03
2018-10-11T01:38:51.129Z,26.23
2018-10-11T01:41:20.295Z,27.93
2018-10-11T01:43:49.434Z,32.30
2018-10-11T01:46:18.712Z,27.90
2018-10-11T01:48:47.691Z,27.27
2018-10-11T01:51:16.866Z,25.47
2018-10-11T01:53:46.222Z,25.20
2018-10-11T01:56:15.283Z,24.60
2018-10-11T01:58:44.258Z,26.57
2018-10-11T02:01:13.342Z,26.57
2018-10-11T02:03:42.659Z,25.50
2018-10-11T02:06:11.834Z,30.47
2018-10-11T02:08:40.927Z,24.87
2018-10-11T02:11:09.861Z,26.50
2018-10-11T02:13:38.993Z,29.07
2018-10-11T02:16:08.229Z,28.10
2018-10-11T02:18:37.249Z,26.40
2018-10-11T02:21:06.551Z,28.93
2018-10-11T02:23:36.237Z,27.97
2018-10-11T02:26:05.403Z,30.40
2018-10-11T02:28:34.400Z,26.03
2018-10-11T02:31:03.618Z,25.97
2018-10-11T02:33:32.653Z,29.13
2018-10-11T02:36:01.661Z,28.70
2018-10-11T02:38:31.132Z,40.93
2018-10-11T02:41:00.074Z,31.30
2018-10-11T02:43:29.197Z,32.33
2018-10-11T02:45:58.599Z,27.23
2018-10-11T02:48:27.583Z,31.03
2018-10-11T02:50:56.829Z,28.70
2018-10-11T02:53:26.266Z,28.93
2018-10-11T02:55:55.362Z,31.77
2018-10-11T02:58:35.374Z,33.27
2018-10-11T03:01:04.700Z,31.07
2018-10-11T03:03:33.938Z,31.50
2018-10-11T03:06:03.327Z,35.13
2018-10-11T03:08:32.453Z,34.53
2018-10-11T03:11:01.585Z,28.10
2018-10-11T03:13:30.898Z,31.13
2018-10-11T03:15:59.874Z,32.57
2018-10-11T03:18:28.949Z,36.20
2018-10-11T03:20:58.478Z,33.57
2018-10-11T03:23:27.532Z,31.27
2018-10-11T03:25:56.660Z,31.87
2018-10-11T03:28:26.069Z,32.83
2018-10-11T03:30:55.148Z,31.67
2018-10-11T03:33:24.154Z,34.47
2018-10-11T03:35:53.198Z,32.60
2018-10-11T03:38:22.236Z,33.30
2018-10-11T03:40:51.111Z,33.10
2018-10-11T03:43:20.153Z,37.30
2018-10-11T03:45:49.152Z,38.17
2018-10-11T03:48:18.791Z,51.87
2018-10-11T03:50:48.107Z,35.37
2018-10-11T03:53:17.162Z,34.30
2018-10-11T03:55:46.138Z,35.80
2018-10-11T03:58:15.721Z,37.80
2018-10-11T04:00:45.793Z,38.23
2018-10-11T04:03:16.225Z,37.30
2018-10-11T04:05:45.367Z,35.53
2018-10-11T04:08:14.287Z,37.00
2018-10-11T04:10:43.461Z,40.73
2018-10-11T04:13:12.526Z,39.03
2018-10-11T04:15:41.690Z,36.13
2018-10-11T04:18:10.731Z,39.87
2018-10-11T04:20:39.726Z,47.90
2018-10-11T04:23:12.242Z,36.27
2018-10-11T04:25:41.134Z,33.90
2018-10-11T04:28:10.132Z,42.10
2018-10-11T04:30:39.274Z,44.50
2018-10-11T04:33:08.313Z,38.10
2018-10-11T04:35:37.506Z,45.17
2018-10-11T04:38:07.012Z,45.70
2018-10-11T04:40:35.909Z,46.47
2018-10-11T04:43:04.962Z,99.63
2018-10-11T04:45:34.299Z,46.37
2018-10-11T04:48:03.215Z,40.77
2018-10-11T04:50:32.265Z,40.07
2018-10-11T04:53:01.797Z,40.43
2018-10-11T04:55:30.807Z,48.53
2018-10-11T04:57:59.856Z,50.53
2018-10-11T05:00:29.164Z,44.73
2018-10-11T05:02:58.213Z,37.83
2018-10-11T05:05:27.461Z,42.77
2018-10-11T05:07:56.654Z,48.80
2018-10-11T05:10:25.984Z,47.20
2018-10-11T05:15:33.426Z,42.30
2018-10-11T05:18:02.949Z,45.57
2018-10-11T05:20:31.913Z,46.17
2018-10-11T05:23:01.268Z,42.80
2018-10-11T05:25:30.243Z,41.67
2018-10-11T05:27:59.357Z,37.43
2018-10-11T05:30:28.387Z,40.50
2018-10-11T05:32:57.752Z,34.90
2018-10-11T05:35:26.711Z,44.17
2018-10-11T05:37:55.710Z,49.17
2018-10-11T05:40:24.650Z,39.03
2018-10-11T05:42:53.550Z,36.23
2018-10-11T05:45:24.016Z,40.70
2018-10-11T05:47:53.470Z,42.27
2018-10-11T05:50:22.607Z,36.80
2018-10-11T05:52:51.654Z,38.00
2018-10-11T05:55:20.805Z,33.47
2018-10-11T05:57:50.095Z,41.63
2018-10-11T06:00:19.225Z,32.03
2018-10-11T06:02:57.092Z,37.80
2018-10-11T06:05:26.099Z,32.67
2018-10-11T06:07:55.257Z,36.30
2018-10-11T06:10:24.410Z,35.27
2018-10-11T06:12:53.612Z,35.77
2018-10-11T06:15:22.713Z,43.30
2018-10-11T06:17:51.738Z,38.77
2018-10-11T06:20:21.282Z,32.67
2018-10-11T06:22:50.367Z,30.53
2018-10-11T06:25:19.378Z,32.37
2018-10-11T06:27:48.397Z,32.63
2018-10-11T06:30:17.794Z,26.77
2018-10-11T06:32:47.138Z,25.90
2018-10-11T06:35:16.538Z,30.17
2018-10-11T06:37:45.996Z,26.57
2018-10-11T06:40:15.100Z,28.53
2018-10-11T06:42:44.959Z,27.03
2018-10-11T06:45:15.185Z,27.53
2018-10-11T06:47:46.145Z,27.13
2018-10-11T06:50:15.246Z,28.37
2018-10-11T06:52:44.342Z,27.47
2018-10-11T06:55:13.524Z,29.57
2018-10-11T06:57:42.441Z,27.13
2018-10-11T07:00:11.396Z,24.27
2018-10-11T07:02:40.278Z,28.30
2018-10-11T07:05:09.095Z,22.80
2018-10-11T07:07:38.024Z,26.50
2018-10-11T07:10:07.078Z,26.93
2018-10-11T07:12:36.093Z,23.53
2018-10-11T07:15:05.123Z,24.83
2018-10-11T07:17:34.119Z,28.70
2018-10-11T07:20:03.076Z,21.77
2018-10-11T07:22:32.020Z,29.57
2018-10-11T07:25:01.026Z,26.93
2018-10-11T07:27:29.912Z,27.00
2018-10-11T07:29:58.891Z,23.87
2018-10-11T07:32:28.200Z,37.33
2018-10-11T07:34:57.226Z,31.50
2018-10-11T07:37:26.168Z,23.70
2018-10-11T07:39:55.024Z,24.47
2018-10-11T07:42:23.983Z,30.20
2018-10-11T07:44:52.889Z,24.80
2018-10-11T07:47:22.037Z,29.70
2018-10-11T07:49:50.942Z,31.63
2018-10-11T07:52:19.919Z,27.00
2018-10-11T07:54:48.868Z,28.13
2018-10-11T07:57:17.793Z,34.87
2018-10-11T07:59:46.833Z,29.87
2018-10-11T08:02:16.747Z,28.80
2018-10-11T08:04:45.599Z,28.83
2018-10-11T08:07:14.639Z,24.00
2018-10-11T08:09:43.854Z,36.07
2018-10-11T08:12:12.940Z,25.90
2018-10-11T08:14:41.891Z,22.67
2018-10-11T08:17:11.116Z,27.77
2018-10-11T08:19:39.850Z,28.10
2018-10-11T08:22:08.789Z,24.00
2018-10-11T08:24:37.903Z,31.47
2018-10-11T08:27:07.098Z,27.10
2018-10-11T08:29:36.080Z,23.03
2018-10-11T08:32:05.373Z,23.97
2018-10-11T08:34:34.876Z,21.27
2018-10-11T08:37:04.534Z,26.33
2018-10-11T08:39:34.193Z,31.50
2018-10-11T08:42:03.271Z,29.43
2018-10-11T08:44:32.104Z,23.37
2018-10-11T08:47:01.432Z,21.70
2018-10-11T08:49:30.345Z,25.33
2018-10-11T08:51:59.350Z,32.33
2018-10-11T08:54:33.836Z,27.00
2018-10-11T08:57:03.043Z,37.20
2018-10-11T08:59:32.145Z,30.23
2018-10-11T09:02:01.280Z,29.80
2018-10-11T09:04:30.241Z,36.30
2018-10-11T09:06:59.284Z,30.03
2018-10-11T09:09:28.182Z,23.50
2018-10-11T09:11:57.185Z,32.83
2018-10-11T09:14:26.086Z,31.97
2018-10-11T09:16:55.131Z,27.80
2018-10-11T09:19:24.034Z,28.90
2018-10-11T09:21:52.908Z,25.47
2018-10-11T09:24:22.058Z,26.47
2018-10-11T09:26:50.999Z,27.20
2018-10-11T09:29:19.881Z,24.60
2018-10-11T09:31:48.916Z,23.97
2018-10-11T09:34:17.801Z,20.80
2018-10-11T09:36:46.709Z,23.00
2018-10-11T09:39:15.918Z,19.83
2018-10-11T09:41:44.809Z,21.97
2018-10-11T09:44:13.895Z,21.70
2018-10-11T09:46:42.938Z,21.47
2018-10-11T09:49:11.813Z,22.70
2018-10-11T09:51:40.883Z,21.43
2018-10-11T09:54:09.992Z,17.20
2018-10-11T09:57:45.038Z,22.70
2018-10-11T10:00:19.292Z,16.37
2018-10-11T10:02:48.952Z,17.07
2018-10-11T10:05:17.795Z,17.13
2018-10-11T10:07:47.150Z,20.17
2018-10-11T10:10:16.231Z,18.73
2018-10-11T10:12:45.148Z,17.40
2018-10-11T10:15:14.193Z,18.23
2018-10-11T10:17:43.101Z,15.13
2018-10-11T10:20:12.058Z,20.77
2018-10-11T10:22:41.696Z,19.53
2018-10-11T10:25:10.668Z,24.13
2018-10-11T10:27:39.702Z,18.63
2018-10-11T10:30:13.692Z,21.33
2018-10-11T10:32:42.626Z,16.97
2018-10-11T10:35:11.618Z,16.63
2018-10-11T10:37:40.964Z,18.13
2018-10-11T10:40:11.025Z,18.17
2018-10-11T10:42:40.013Z,19.43
2018-10-11T10:45:09.092Z,15.37
2018-10-11T10:47:39.298Z,18.30
2018-10-11T10:50:08.347Z,19.07
2018-10-11T10:52:37.554Z,17.37
2018-10-11T10:55:06.743Z,18.10
2018-10-11T10:57:35.622Z,19.63
2018-10-11T11:00:04.899Z,22.57
2018-10-11T11:02:33.816Z,20.27
2018-10-11T11:05:02.745Z,23.03
2018-10-11T11:07:31.965Z,19.60
2018-10-11T11:10:00.915Z,20.73
2018-10-11T11:12:29.900Z,20.37
2018-10-11T11:14:58.945Z,25.77
2018-10-11T11:17:27.832Z,24.03
2018-10-11T11:19:56.780Z,20.70
2018-10-11T11:22:25.861Z,17.70
2018-10-11T11:24:54.845Z,16.50
2018-10-11T11:27:23.747Z,17.77
2018-10-11T11:29:53.190Z,15.50
2018-10-11T11:32:22.109Z,12.70
2018-10-11T11:34:51.085Z,13.63
2018-10-11T11:37:20.404Z,14.23
2018-10-11T11:39:49.402Z,15.97
2018-10-11T11:42:18.346Z,15.87
2018-10-11T11:44:47.223Z,23.20
2018-10-11T11:47:16.301Z,16.97
2018-10-11T11:49:45.406Z,17.97
2018-10-11T11:52:14.704Z,16.03
2018-10-11T11:54:43.720Z,19.67
2018-10-11T11:57:12.861Z,20.40
2018-10-11T11:59:42.084Z,13.03
2018-10-11T12:02:11.257Z,11.67
2018-10-11T12:04:40.330Z,13.33
2018-10-11T12:07:09.570Z,17.50
2018-10-11T12:09:38.683Z,12.67
2018-10-11T12:12:07.965Z,11.23
2018-10-11T12:14:37.254Z,13.13
2018-10-11T12:17:06.360Z,10.18
2018-10-11T12:19:35.850Z,14.07
2018-10-11T12:22:05.101Z,13.53
2018-10-11T12:24:34.129Z,17.45
2018-10-11T12:27:03.210Z,11.97
2018-10-11T12:29:32.644Z,12.87
2018-10-11T12:32:01.723Z,13.22
2018-10-11T12:34:30.853Z,12.80
2018-10-11T12:37:00.466Z,15.27
2018-10-11T12:39:29.353Z,16.73
2018-10-11T12:41:58.391Z,10.97
2018-10-11T12:44:27.936Z,10.67
2018-10-11T12:46:57.056Z,10.17
2018-10-11T12:49:26.281Z,12.37
2018-10-11T12:51:55.305Z,15.47
2018-10-11T12:54:24.472Z,12.83
2018-10-11T12:56:53.549Z,14.60
2018-10-11T12:59:22.642Z,16.73
2018-10-11T13:01:51.805Z,14.47
2018-10-11T13:04:20.821Z,14.73
2018-10-11T13:06:50.180Z,15.70
2018-10-11T13:09:19.163Z,19.77
2018-10-11T13:11:48.248Z,15.27
2018-10-11T13:14:17.468Z,18.80
2018-10-11T13:16:46.537Z,13.07
2018-10-11T13:19:15.439Z,14.27
2018-10-11T13:21:44.490Z,20.10
2018-10-11T13:24:13.435Z,21.70
2018-10-11T13:26:42.322Z,17.37
2018-10-11T13:29:11.377Z,17.53
2018-10-11T13:31:40.400Z,23.07
2018-10-11T13:34:09.920Z,24.57
2018-10-11T13:36:38.859Z,22.53
2018-10-11T13:39:08.950Z,18.83
2018-10-11T13:41:37.966Z,19.53
2018-10-11T13:44:07.087Z,26.10
2018-10-11T13:46:36.131Z,29.23
2018-10-11T13:49:05.135Z,25.00
2018-10-11T13:51:34.273Z,17.70
2018-10-11T13:54:03.175Z,18.73
2018-10-11T13:56:32.049Z,18.33
2018-10-11T13:59:04.030Z,19.07
2018-10-11T14:01:30.256Z,28.43
2018-10-11T14:03:59.163Z,25.67
2018-10-11T14:06:28.356Z,20.27
2018-10-11T14:08:57.221Z,20.07
2018-10-11T14:11:26.134Z,26.73
2018-10-11T14:13:55.508Z,34.07
2018-10-11T14:16:24.432Z,24.73
2018-10-11T14:18:53.410Z,20.63
2018-10-11T14:21:22.752Z,23.87
2018-10-11T14:23:51.782Z,20.93
2018-10-11T14:26:20.635Z,24.93
2018-10-11T14:28:50.156Z,19.63
2018-10-11T14:31:19.075Z,26.30
2018-10-11T14:33:48.006Z,26.23
2018-10-11T14:36:17.418Z,27.97
2018-10-11T14:38:46.630Z,26.00
2018-10-11T14:41:15.642Z,23.90
2018-10-11T14:43:44.741Z,26.30
2018-10-11T14:46:13.796Z,29.67
2018-10-11T14:48:43.202Z,35.03
2018-10-11T14:51:12.480Z,21.93
2018-10-11T14:53:42.001Z,30.03
2018-10-11T14:56:11.039Z,26.10
2018-10-11T14:58:40.198Z,24.73
2018-10-11T15:01:09.265Z,29.33
2018-10-11T15:03:38.245Z,22.93
2018-10-11T15:06:07.425Z,27.33
2018-10-11T15:08:36.469Z,25.70
2018-10-11T15:11:05.627Z,28.10
2018-10-11T15:13:34.866Z,28.80
2018-10-11T15:16:03.989Z,30.40
2018-10-11T15:18:33.069Z,22.90
2018-10-11T15:21:02.222Z,35.37
2018-10-11T15:23:31.145Z,22.03
2018-10-11T15:26:00.270Z,29.50
2018-10-11T15:28:29.574Z,26.63
2018-10-11T15:30:58.501Z,31.20
2018-10-11T15:33:27.492Z,42.33
2018-10-11T15:35:56.465Z,54.47
2018-10-11T15:38:25.390Z,41.93
2018-10-11T15:40:54.297Z,49.23
2018-10-11T15:43:23.634Z,138.87
2018-10-11T15:45:52.793Z,63.30
2018-10-11T15:48:21.733Z,45.20
2018-10-11T15:50:50.680Z,48.40
2018-10-11T15:53:19.676Z,35.57
2018-10-11T15:55:48.600Z,35.93
2018-10-11T15:58:17.892Z,36.63
2018-10-11T16:00:46.851Z,30.97
2018-10-11T16:03:15.954Z,30.53
2018-10-11T16:05:45.264Z,28.73
2018-10-11T16:08:14.180Z,23.10
2018-10-11T16:10:44.232Z,30.17
2018-10-11T16:13:13.339Z,34.73
2018-10-11T16:15:42.402Z,27.40
2018-10-11T16:18:11.451Z,23.73
2018-10-11T16:20:40.605Z,27.90
2018-10-11T16:23:09.676Z,29.83
2018-10-11T16:25:38.584Z,26.80
2018-10-11T16:28:07.557Z,32.67
2018-10-11T16:30:36.599Z,24.43
2018-10-11T16:33:06.072Z,30.43
2018-10-11T16:35:36.083Z,32.40
2018-10-11T16:38:05.361Z,28.80
2018-10-11T16:40:34.506Z,38.90
2018-10-11T16:43:04.656Z,35.20
2018-10-11T16:45:40.091Z,26.30
2018-10-11T16:48:09.164Z,23.43
2018-10-11T16:50:38.197Z,34.00
2018-10-11T16:53:07.391Z,30.17
2018-10-11T16:55:36.881Z,29.20
2018-10-11T16:58:06.059Z,35.90
2018-10-11T17:00:35.018Z,33.77
2018-10-11T17:03:04.257Z,30.63
2018-10-11T17:05:33.437Z,31.80
2018-10-11T17:08:02.384Z,34.63
2018-10-11T17:10:31.292Z,36.07
2018-10-11T17:13:00.280Z,30.07
2018-10-11T17:15:29.272Z,30.97
2018-10-11T17:17:58.263Z,45.47
2018-10-11T17:20:27.249Z,31.57
2018-10-11T17:22:56.299Z,39.03
2018-10-11T17:25:25.447Z,35.50
2018-10-11T17:27:54.645Z,27.23
2018-10-11T17:30:23.627Z,31.40
2018-10-11T17:32:53.027Z,34.80
2018-10-11T17:35:22.227Z,37.93
2018-10-11T17:37:51.209Z,35.57
2018-10-11T17:40:20.275Z,35.43
2018-10-11T17:42:49.431Z,34.33
2018-10-11T17:45:18.545Z,35.77
2018-10-11T17:47:47.591Z,28.83
2018-10-11T17:50:16.784Z,22.20
2018-10-11T17:52:46.117Z,31.03
2018-10-11T17:55:15.302Z,28.70
2018-10-11T17:57:45.069Z,27.57
2018-10-11T18:00:14.461Z,29.17
2018-10-11T18:02:43.847Z,29.23
2018-10-11T18:05:13.216Z,29.50
2018-10-11T18:07:42.335Z,35.83
2018-10-11T18:10:11.679Z,27.73
2018-10-11T18:12:40.797Z,32.10
2018-10-11T18:15:09.883Z,29.07
2018-10-11T18:17:39.129Z,35.07
2018-10-11T18:20:08.425Z,30.10
2018-10-11T18:22:37.540Z,33.53
2018-10-11T18:25:06.635Z,41.60
2018-10-11T18:27:36.681Z,29.47
2018-10-11T18:30:06.061Z,31.13
2018-10-11T18:32:35.288Z,28.57
2018-10-11T18:35:04.527Z,31.27
2018-10-11T18:37:34.582Z,33.73
2018-10-11T18:40:03.637Z,35.00
2018-10-11T18:42:32.713Z,37.00
2018-10-11T18:45:02.044Z,34.37
2018-10-11T18:47:31.066Z,27.17
2018-10-11T18:50:00.145Z,37.67
2018-10-11T18:52:29.321Z,31.13
2018-10-11T18:54:58.350Z,36.17
2018-10-11T18:57:27.478Z,34.67
2018-10-11T18:59:57.097Z,30.50
2018-10-11T19:02:26.139Z,33.37
2018-10-11T19:04:55.176Z,39.87
2018-10-11T19:07:24.412Z,32.30
2018-10-11T19:09:54.338Z,36.53
2018-10-11T19:12:23.400Z,31.43
2018-10-11T19:14:52.365Z,49.03
2018-10-11T19:17:21.516Z,34.50
2018-10-11T19:19:50.569Z,35.77
2018-10-11T19:22:19.883Z,39.60
2018-10-11T19:24:49.013Z,32.50
2018-10-11T19:27:18.040Z,35.83
2018-10-11T19:29:47.094Z,32.60
2018-10-11T19:32:16.351Z,33.77
2018-10-11T19:34:45.442Z,32.13
2018-10-11T19:37:14.384Z,32.77
2018-10-11T19:39:43.581Z,33.00
2018-10-11T19:42:12.528Z,37.53
2018-10-11T19:44:41.714Z,34.63
2018-10-11T19:47:10.803Z,36.47
2018-10-11T19:49:39.908Z,35.37
2018-10-11T19:52:09.229Z,33.97
2018-10-11T19:54:38.209Z,31.93
2018-10-11T19:57:07.473Z,36.17
2018-10-11T19:59:36.682Z,33.00
2018-10-11T20:02:06.129Z,44.37
2018-10-11T20:04:35.306Z,39.07
2018-10-11T20:07:04.520Z,41.47
2018-10-11T20:09:34.016Z,40.70
2018-10-11T20:12:03.075Z,45.73
2018-10-11T20:14:32.314Z,43.23
2018-10-11T20:17:01.338Z,57.10
2018-10-11T20:19:30.391Z,47.30
2018-10-11T20:21:59.988Z,40.83
2018-10-11T20:24:29.025Z,43.30
2018-10-11T20:26:58.022Z,44.77
2018-10-11T20:29:27.181Z,45.73
2018-10-11T20:31:56.217Z,43.20
2018-10-11T20:34:25.460Z,45.87
2018-10-11T20:36:54.906Z,48.93
2018-10-11T20:39:24.039Z,46.10
2018-10-11T20:41:53.130Z,48.67
2018-10-11T20:44:22.324Z,42.67
2018-10-11T20:46:51.478Z,38.03
2018-10-11T20:49:20.363Z,36.73
2018-10-11T20:51:49.346Z,32.53
2018-10-11T20:54:18.399Z,26.83
2018-10-11T20:56:47.421Z,22.73
2018-10-11T20:59:16.592Z,24.67
2018-10-11T21:01:45.722Z,24.27
2018-10-11T21:04:15.057Z,20.70
2018-10-11T21:06:44.169Z,23.73
2018-10-11T21:09:14.351Z,18.47
2018-10-11T21:11:43.683Z,19.30
2018-10-11T21:14:12.738Z,19.67
2018-10-11T21:16:41.696Z,20.40
2018-10-11T21:19:11.070Z,16.43
2018-10-11T21:21:40.229Z,17.93
2018-10-11T21:24:09.253Z,16.30
2018-10-11T21:26:38.556Z,19.23
2018-10-11T21:29:07.528Z,20.97
2018-10-11T21:31:36.650Z,20.10
2018-10-11T21:34:07.151Z,20.60
2018-10-11T21:36:36.288Z,17.93
2018-10-11T21:39:09.901Z,19.73
2018-10-11T21:41:38.983Z,19.30
2018-10-11T21:44:07.940Z,18.57
2018-10-11T21:46:36.952Z,23.20
2018-10-11T21:49:06.018Z,18.17
2018-10-11T21:51:35.197Z,16.07
2018-10-11T21:54:04.508Z,15.93
2018-10-11T21:56:33.469Z,22.90
2018-10-11T21:59:02.613Z,24.60
2018-10-11T22:01:31.832Z,28.43
2018-10-11T22:04:00.758Z,30.07
2018-10-11T22:06:30.004Z,33.00
2018-10-11T22:08:59.298Z,36.07
2018-10-11T22:11:28.289Z,32.13
2018-10-11T22:13:57.317Z,36.17
2018-10-11T22:16:26.409Z,31.50
2018-10-11T22:18:55.519Z,34.97
2018-10-11T22:21:24.699Z,35.67
2018-10-11T22:23:54.235Z,36.97
2018-10-11T22:26:23.217Z,33.10
2018-10-11T22:28:52.249Z,35.53
2018-10-11T22:31:21.241Z,36.23
2018-10-11T22:33:50.267Z,35.00
2018-10-11T22:36:19.385Z,34.57
2018-10-11T22:38:48.795Z,35.07
2018-10-11T22:41:17.997Z,30.50
2018-10-11T22:43:47.167Z,38.37
2018-10-11T22:46:16.150Z,36.23
2018-10-11T22:48:45.259Z,33.60
2018-10-11T22:51:15.525Z,42.77
2018-10-11T22:53:44.740Z,35.30
2018-10-11T22:56:13.853Z,39.93
2018-10-11T22:58:42.814Z,37.53
2018-10-11T23:01:11.833Z,37.63
2018-10-11T23:03:40.944Z,37.70
2018-10-11T23:06:15.261Z,34.13
2018-10-11T23:08:44.325Z,42.77
2018-10-11T23:11:13.493Z,45.77
2018-10-11T23:13:42.980Z,50.23
2018-10-11T23:16:12.212Z,62.27
2018-10-11T23:18:42.132Z,58.77
2018-10-11T23:21:12.264Z,110.43
2018-10-11T23:23:42.127Z,91.00
2018-10-11T23:26:11.087Z,76.00
2018-10-11T23:28:41.352Z,52.57
2018-10-11T23:31:11.258Z,47.77
2018-10-11T23:33:40.661Z,45.03
2018-10-11T23:36:09.680Z,45.53
2018-10-11T23:38:38.886Z,38.57
2018-10-11T23:41:08.785Z,42.87
2018-10-11T23:43:38.094Z,47.83
2018-10-11T23:46:07.634Z,40.60
2018-10-11T23:48:36.936Z,40.23
2018-10-11T23:51:05.908Z,35.00
2018-10-11T23:53:35.000Z,36.00
2018-10-11T23:56:04.232Z,36.83
2018-10-11T23:58:33.325Z,35.00
